createdAt,value
2023-05-16T00:00:10.951Z,3.85
2023-05-16T00:02:39.528Z,3.95
2023-05-16T00:05:10.756Z,4.00
2023-05-16T00:07:37.847Z,4.30
2023-05-16T00:10:05.103Z,3.90
2023-05-16T00:12:33.097Z,3.97
2023-05-16T00:15:00.550Z,4.18
2023-05-16T00:17:28.929Z,3.75
2023-05-16T00:19:58.262Z,3.60
2023-05-16T00:22:25.629Z,4.20
2023-05-16T00:24:52.697Z,3.90
2023-05-16T00:27:19.886Z,3.85
2023-05-16T00:29:46.956Z,4.00
2023-05-16T00:32:14.099Z,4.07
2023-05-16T00:34:41.409Z,4.10
2023-05-16T00:37:08.530Z,3.97
2023-05-16T00:39:35.692Z,3.88
2023-05-16T00:42:02.936Z,4.18
2023-05-16T00:44:30.990Z,3.78
2023-05-16T00:46:58.412Z,3.90
2023-05-16T00:49:25.683Z,4.03
2023-05-16T00:51:52.956Z,4.28
2023-05-16T00:54:22.869Z,4.18
2023-05-16T00:56:50.356Z,4.25
2023-05-16T00:59:17.427Z,4.15
2023-05-16T01:01:47.472Z,4.13
2023-05-16T01:04:14.893Z,3.90
2023-05-16T01:06:42.269Z,4.18
2023-05-16T01:09:09.572Z,3.97
2023-05-16T01:11:36.650Z,3.97
2023-05-16T01:14:22.651Z,4.10
2023-05-16T01:16:55.974Z,4.10
2023-05-16T01:19:33.792Z,4.30
2023-05-16T01:22:05.712Z,4.15
2023-05-16T01:24:34.892Z,4.22
2023-05-16T01:27:03.259Z,4.40
2023-05-16T01:29:30.576Z,4.45
2023-05-16T01:31:58.953Z,4.00
2023-05-16T01:34:26.334Z,3.78
2023-05-16T01:37:12.085Z,4.22
2023-05-16T01:39:48.172Z,4.30
2023-05-16T01:42:16.295Z,4.38
2023-05-16T01:44:49.029Z,4.30
2023-05-16T01:47:17.542Z,3.67
2023-05-16T01:49:51.038Z,4.28
2023-05-16T01:52:23.495Z,4.20
2023-05-16T01:54:54.246Z,4.28
2023-05-16T01:57:23.446Z,3.72
2023-05-16T01:59:50.759Z,3.97
2023-05-16T02:02:21.217Z,4.00
2023-05-16T02:04:48.300Z,4.18
2023-05-16T02:07:15.511Z,3.88
2023-05-16T02:09:42.629Z,3.75
2023-05-16T02:12:09.726Z,4.00
2023-05-16T02:14:36.827Z,3.97
2023-05-16T02:17:04.022Z,4.18
2023-05-16T02:19:31.135Z,3.70
2023-05-16T02:21:58.276Z,3.80
2023-05-16T02:24:25.338Z,4.10
2023-05-16T02:26:52.490Z,3.72
2023-05-16T02:29:19.700Z,3.88
2023-05-16T02:31:47.138Z,3.97
2023-05-16T02:34:14.220Z,3.80
2023-05-16T02:36:41.342Z,3.90
2023-05-16T02:39:10.152Z,3.88
2023-05-16T02:41:37.743Z,3.72
2023-05-16T02:44:04.947Z,3.92
2023-05-16T02:46:34.100Z,3.92
2023-05-16T02:49:01.855Z,3.90
2023-05-16T02:51:29.484Z,3.53
2023-05-16T02:53:57.264Z,3.60
2023-05-16T02:56:24.448Z,3.80
2023-05-16T02:58:51.623Z,4.13
2023-05-16T03:01:18.812Z,3.60
2023-05-16T03:03:46.078Z,4.20
2023-05-16T03:06:13.574Z,3.85
2023-05-16T03:08:40.666Z,3.90
2023-05-16T03:11:07.741Z,3.80
2023-05-16T03:13:34.848Z,4.40
2023-05-16T03:16:02.211Z,3.60
2023-05-16T03:18:29.543Z,3.83
2023-05-16T03:20:57.479Z,3.58
2023-05-16T03:23:24.651Z,4.43
2023-05-16T03:25:51.832Z,3.85
2023-05-16T03:28:19.024Z,4.45
2023-05-16T03:30:46.225Z,4.28
2023-05-16T03:33:13.315Z,4.13
2023-05-16T03:35:40.919Z,4.10
2023-05-16T03:38:08.037Z,4.35
2023-05-16T03:40:35.172Z,4.18
2023-05-16T03:43:02.335Z,3.58
2023-05-16T03:45:30.688Z,3.70
2023-05-16T03:47:58.238Z,4.78
2023-05-16T03:50:25.586Z,4.18
2023-05-16T03:52:54.002Z,4.00
2023-05-16T03:55:21.517Z,3.65
2023-05-16T03:57:50.112Z,3.83
2023-05-16T04:00:17.467Z,4.32
2023-05-16T04:02:45.004Z,3.95
2023-05-16T04:05:14.029Z,3.08
2023-05-16T04:07:41.394Z,4.00
2023-05-16T04:10:08.796Z,4.07
2023-05-16T04:12:36.148Z,3.45
2023-05-16T04:15:04.240Z,4.07
2023-05-16T04:17:31.529Z,3.88
2023-05-16T04:19:58.745Z,4.07
2023-05-16T04:22:26.135Z,4.10
2023-05-16T04:24:53.196Z,3.22
2023-05-16T04:27:20.399Z,3.83
2023-05-16T04:29:47.982Z,3.78
2023-05-16T04:32:15.361Z,3.75
2023-05-16T04:34:44.254Z,3.63
2023-05-16T04:37:11.852Z,3.75
2023-05-16T04:39:39.241Z,4.20
2023-05-16T04:42:06.529Z,3.83
2023-05-16T04:44:34.425Z,3.83
2023-05-16T04:47:01.763Z,3.72
2023-05-16T04:49:28.889Z,3.42
2023-05-16T04:51:55.973Z,3.58
2023-05-16T04:54:23.429Z,4.00
2023-05-16T04:56:50.627Z,3.92
2023-05-16T04:59:17.735Z,3.50
2023-05-16T05:01:44.961Z,3.97
2023-05-16T05:04:12.327Z,3.80
2023-05-16T05:06:39.458Z,3.50
2023-05-16T05:09:06.537Z,4.03
2023-05-16T05:11:33.704Z,3.28
2023-05-16T05:14:00.823Z,3.67
2023-05-16T05:16:27.985Z,3.97
2023-05-16T05:18:55.301Z,4.13
2023-05-16T05:21:25.183Z,4.40
2023-05-16T05:23:52.343Z,3.80
2023-05-16T05:26:19.518Z,4.25
2023-05-16T05:28:53.772Z,3.83
2023-05-16T05:31:29.057Z,4.07
2023-05-16T05:33:56.918Z,4.13
2023-05-16T05:36:24.080Z,3.35
2023-05-16T05:38:51.144Z,4.18
2023-05-16T05:41:18.195Z,4.28
2023-05-16T05:43:45.290Z,3.83
2023-05-16T05:46:12.597Z,3.83
2023-05-16T05:48:39.759Z,4.30
2023-05-16T05:51:06.915Z,4.68
2023-05-16T05:53:34.505Z,4.03
2023-05-16T05:56:01.592Z,4.60
2023-05-16T05:58:28.681Z,4.45
2023-05-16T06:00:55.902Z,4.20
2023-05-16T06:03:23.261Z,4.22
2023-05-16T06:05:50.764Z,4.22
2023-05-16T06:08:17.969Z,4.45
2023-05-16T06:10:45.072Z,4.32
2023-05-16T06:13:12.147Z,4.18
2023-05-16T06:15:39.261Z,4.22
2023-05-16T06:18:06.424Z,4.18
2023-05-16T06:20:33.679Z,3.70
2023-05-16T06:23:00.959Z,4.55
2023-05-16T06:25:28.409Z,3.88
2023-05-16T06:27:55.788Z,3.78
2023-05-16T06:30:23.062Z,4.00
2023-05-16T06:32:50.545Z,3.83
2023-05-16T06:35:17.761Z,4.28
2023-05-16T06:37:44.945Z,3.88
2023-05-16T06:40:12.551Z,3.33
2023-05-16T06:42:39.786Z,3.90
2023-05-16T06:45:07.717Z,3.30
2023-05-16T06:47:34.913Z,3.58
2023-05-16T06:50:02.111Z,3.42
2023-05-16T06:52:29.278Z,3.78
2023-05-16T06:54:56.579Z,4.13
2023-05-16T06:57:23.691Z,3.63
2023-05-16T06:59:50.828Z,3.60
2023-05-16T07:02:18.116Z,3.92
2023-05-16T07:04:45.647Z,3.30
2023-05-16T07:07:13.589Z,4.70
2023-05-16T07:09:40.880Z,4.00
2023-05-16T07:12:08.218Z,4.18
2023-05-16T07:14:35.386Z,3.35
2023-05-16T07:17:02.847Z,3.83
2023-05-16T07:19:30.209Z,3.85
2023-05-16T07:21:57.364Z,3.70
2023-05-16T07:24:24.487Z,3.60
2023-05-16T07:26:51.814Z,3.35
2023-05-16T07:29:19.119Z,3.95
2023-05-16T07:31:46.467Z,3.78
2023-05-16T07:34:13.576Z,3.78
2023-05-16T07:36:41.371Z,4.30
2023-05-16T07:39:08.458Z,3.95
2023-05-16T07:41:35.797Z,4.28
2023-05-16T07:44:02.969Z,3.70
2023-05-16T07:46:30.670Z,3.85
2023-05-16T07:48:57.995Z,3.60
2023-05-16T07:51:25.139Z,3.75
2023-05-16T07:53:52.240Z,3.42
2023-05-16T07:56:19.719Z,3.60
2023-05-16T07:58:48.822Z,3.50
2023-05-16T08:01:16.978Z,3.83
2023-05-16T08:03:44.197Z,4.13
2023-05-16T08:06:11.523Z,4.38
2023-05-16T08:08:38.712Z,3.97
2023-05-16T08:11:05.834Z,4.03
2023-05-16T08:13:32.983Z,4.65
2023-05-16T08:16:00.201Z,3.78
2023-05-16T08:18:27.448Z,3.65
2023-05-16T08:20:54.607Z,3.50
2023-05-16T08:23:21.799Z,4.10
2023-05-16T08:25:49.114Z,4.60
2023-05-16T08:28:16.744Z,4.32
2023-05-16T08:30:45.195Z,4.32
2023-05-16T08:33:13.702Z,5.13
2023-05-16T08:35:44.449Z,4.63
2023-05-16T08:38:11.642Z,4.50
2023-05-16T08:40:38.781Z,4.50
2023-05-16T08:43:06.067Z,5.00
2023-05-16T08:45:33.188Z,5.00
2023-05-16T08:48:01.774Z,4.97
2023-05-16T08:50:32.911Z,5.07
2023-05-16T08:55:29.258Z,5.03
2023-05-16T08:57:57.844Z,5.43
2023-05-16T09:00:25.394Z,4.88
2023-05-16T09:02:55.746Z,4.35
2023-05-16T09:05:23.612Z,4.93
2023-05-16T09:07:50.761Z,5.10
2023-05-16T09:10:17.950Z,4.82
2023-05-16T09:12:45.217Z,4.47
2023-05-16T09:15:12.400Z,4.88
2023-05-16T09:17:43.326Z,4.70
2023-05-16T09:22:38.570Z,5.20
2023-05-16T09:25:08.610Z,5.15
2023-05-16T09:27:41.672Z,4.70
2023-05-16T09:30:10.172Z,5.45
2023-05-16T09:32:37.416Z,5.25
2023-05-16T09:35:04.773Z,5.03
2023-05-16T09:37:31.911Z,4.28
2023-05-16T09:39:59.084Z,4.72
2023-05-16T09:42:26.274Z,5.13
2023-05-16T09:44:56.609Z,4.35
2023-05-16T09:47:23.833Z,4.60
2023-05-16T09:49:54.467Z,4.38
2023-05-16T09:52:21.671Z,5.30
2023-05-16T09:54:50.145Z,4.90
2023-05-16T09:57:21.736Z,4.30
2023-05-16T09:59:49.041Z,5.53
2023-05-16T10:02:16.797Z,4.25
2023-05-16T10:04:44.143Z,4.55
2023-05-16T10:07:11.462Z,3.53
2023-05-16T10:09:40.769Z,4.38
2023-05-16T10:12:09.476Z,4.20
2023-05-16T10:14:37.892Z,4.82
2023-05-16T10:17:08.619Z,4.45
2023-05-16T10:19:37.936Z,3.80
2023-05-16T10:22:08.042Z,4.32
2023-05-16T10:24:44.333Z,4.15
2023-05-16T10:27:12.278Z,3.90
2023-05-16T10:29:52.927Z,3.50
2023-05-16T10:32:21.781Z,4.20
2023-05-16T10:34:49.053Z,3.78
2023-05-16T10:37:16.432Z,2.92
2023-05-16T10:39:43.908Z,3.70
2023-05-16T10:42:11.772Z,3.55
2023-05-16T10:44:40.494Z,3.88
2023-05-16T10:47:08.948Z,3.78
2023-05-16T10:49:36.090Z,4.53
2023-05-16T10:52:21.649Z,3.10
2023-05-16T10:54:52.355Z,3.70
2023-05-16T10:57:22.139Z,3.30
2023-05-16T10:59:50.779Z,3.38
2023-05-16T11:02:24.532Z,3.30
2023-05-16T11:05:02.047Z,3.63
2023-05-16T11:07:33.737Z,3.95
2023-05-16T11:10:07.737Z,4.03
2023-05-16T11:12:39.107Z,3.53
2023-05-16T11:15:23.121Z,3.80
2023-05-16T11:17:50.653Z,4.20
2023-05-16T11:20:47.072Z,4.15
2023-05-16T11:23:17.115Z,3.85
2023-05-16T11:25:45.965Z,3.55
2023-05-16T11:28:14.076Z,3.50
2023-05-16T11:30:45.178Z,3.45
2023-05-16T11:33:15.714Z,3.28
2023-05-16T11:35:43.430Z,3.42
2023-05-16T11:38:14.307Z,3.30
2023-05-16T11:43:08.527Z,3.67
2023-05-16T11:45:35.689Z,3.20
2023-05-16T11:48:06.397Z,3.10
2023-05-16T11:50:34.717Z,3.50
2023-05-16T11:53:02.493Z,3.30
2023-05-16T11:58:01.333Z,3.63
2023-05-16T12:00:29.058Z,3.65
2023-05-16T12:03:01.905Z,3.42
2023-05-16T12:05:31.876Z,3.40
2023-05-16T12:07:59.851Z,3.50
2023-05-16T12:10:27.323Z,3.60
2023-05-16T12:12:55.072Z,4.10
2023-05-16T12:15:22.556Z,3.88
2023-05-16T12:17:50.550Z,3.50
2023-05-16T12:20:18.155Z,3.42
2023-05-16T12:22:46.005Z,3.50
2023-05-16T12:25:21.947Z,3.88
2023-05-16T12:27:49.178Z,3.72
2023-05-16T12:30:19.967Z,3.45
2023-05-16T12:32:47.376Z,3.92
2023-05-16T12:35:16.968Z,4.05
2023-05-16T12:37:44.382Z,4.28
2023-05-16T12:40:13.334Z,4.70
2023-05-16T12:42:40.455Z,4.70
2023-05-16T12:45:16.097Z,4.43
2023-05-16T12:47:43.245Z,4.97
2023-05-16T12:50:14.438Z,5.47
2023-05-16T12:53:08.046Z,4.65
2023-05-16T12:55:35.157Z,5.63
2023-05-16T12:58:02.503Z,4.90
2023-05-16T13:00:29.983Z,5.50
2023-05-16T13:02:57.271Z,4.75
2023-05-16T13:05:24.524Z,5.20
2023-05-16T13:07:51.752Z,4.53
2023-05-16T13:10:19.293Z,4.68
2023-05-16T13:12:47.412Z,5.00
2023-05-16T13:15:15.296Z,4.03
2023-05-16T13:17:47.607Z,3.95
2023-05-16T13:20:15.178Z,4.30
2023-05-16T13:22:43.275Z,3.90
2023-05-16T13:25:10.862Z,3.92
2023-05-16T13:27:38.190Z,3.67
2023-05-16T13:30:05.779Z,3.50
2023-05-16T13:32:32.983Z,3.97
2023-05-16T13:35:00.173Z,3.38
2023-05-16T13:37:27.560Z,3.70
2023-05-16T13:39:55.858Z,3.65
2023-05-16T13:42:23.014Z,3.85
2023-05-16T13:44:50.393Z,3.38
2023-05-16T13:47:17.589Z,3.55
2023-05-16T13:49:44.779Z,3.85
2023-05-16T13:52:11.961Z,3.47
2023-05-16T13:54:41.316Z,3.25
2023-05-16T13:57:08.650Z,3.58
2023-05-16T13:59:59.216Z,3.72
2023-05-16T14:02:25.994Z,3.55
2023-05-16T14:04:53.737Z,2.97
2023-05-16T14:07:21.136Z,3.40
2023-05-16T14:09:48.280Z,3.45
2023-05-16T14:12:15.501Z,3.63
2023-05-16T14:14:42.676Z,3.53
2023-05-16T14:17:09.788Z,3.60
2023-05-16T14:19:37.318Z,3.38
2023-05-16T14:22:04.463Z,3.15
2023-05-16T14:24:31.569Z,3.28
2023-05-16T14:26:58.737Z,3.15
2023-05-16T14:29:26.070Z,2.80
2023-05-16T14:31:53.691Z,2.90
2023-05-16T14:34:22.398Z,3.00
2023-05-16T14:36:50.813Z,3.40
2023-05-16T14:39:17.982Z,3.42
2023-05-16T14:41:45.147Z,3.08
2023-05-16T14:44:12.684Z,3.17
2023-05-16T14:46:41.104Z,3.15
2023-05-16T14:49:09.160Z,3.53
2023-05-16T14:51:36.425Z,3.63
2023-05-16T14:54:04.008Z,3.20
2023-05-16T14:56:31.942Z,3.97
2023-05-16T14:59:00.270Z,3.30
2023-05-16T15:01:27.716Z,3.47
2023-05-16T15:03:56.282Z,3.25
2023-05-16T15:06:24.015Z,3.65
2023-05-16T15:08:51.433Z,3.53
2023-05-16T15:11:18.609Z,3.95
2023-05-16T15:13:46.291Z,3.70
2023-05-16T15:16:13.447Z,3.75
2023-05-16T15:18:41.119Z,3.70
2023-05-16T15:21:09.034Z,4.38
2023-05-16T15:23:36.674Z,3.60
2023-05-16T15:26:04.360Z,3.78
2023-05-16T15:28:31.516Z,4.07
2023-05-16T15:30:58.609Z,4.03
2023-05-16T15:33:25.857Z,3.88
2023-05-16T15:35:53.039Z,4.25
2023-05-16T15:38:20.156Z,3.63
2023-05-16T15:40:52.481Z,3.80
